HTDA

Julius Nyerere International Airport

Dar es Salaam, Tanzania
METAR HTDA 260200Z 01008KT 9999 SCT015 27/25 Q1008 NOSIG
Observed Flight Rules
Feb-26 @ 02:00 UTC (2 hours ago) Visual Flight Rules
Wind Visibility Clouds
10° at 8 knots 10,000+ meters
  • Scattered at 1,500' AGL
Temperatures Readings
Current 27°C / 81°F
Dewpoint 25°C / 77°F
Humidity 89%
Altimeter 29.76" Hg
Pressure 1008 hPa
Elevation 55
METAR HTDA 260200Z 01008KT 9999 SCT015 27/25 Q1008 NOSIG
Observed Flight Rules
Feb-26 @ 02:00 UTC
(2 hours ago)
VFR
Wind Visibility
10° at 8 knots 10,000+ meters
Clouds
  • Scattered at 1,500' AGL
Temperature Dewpoint
27°C / 81°F 25°C / 77°F
Humidity Altimeter Pressure
89% 29.76" Hg 1008 hPa